createdAt,value
2022-08-09T00:00:05.003Z,2.50
2022-08-09T00:02:35.176Z,3.20
2022-08-09T00:06:15.468Z,2.08
2022-08-09T00:07:52.393Z,2.33
2022-08-09T00:10:24.753Z,4.75
2022-08-09T00:12:57.255Z,3.25
2022-08-09T00:15:26.598Z,3.17
2022-08-09T00:18:16.853Z,6.97
2022-08-09T00:20:50.345Z,3.90
2022-08-09T00:23:58.135Z,5.28
2022-08-09T00:26:07.840Z,3.28
2022-08-09T00:28:37.296Z,3.28
2022-08-09T00:31:30.649Z,3.88
2022-08-09T00:33:55.292Z,4.05
2022-08-09T00:36:29.621Z,2.30
2022-08-09T00:38:59.058Z,2.80
2022-08-09T00:44:14.999Z,3.45
2022-08-09T00:44:26.772Z,3.67
2022-08-09T00:47:04.749Z,2.78
2022-08-09T00:49:39.072Z,3.03
2022-08-09T00:52:17.727Z,4.97
2022-08-09T00:54:46.301Z,3.58
2022-08-09T00:57:24.716Z,3.17
2022-08-09T01:00:21.423Z,3.40
2022-08-09T01:02:55.089Z,3.35
2022-08-09T01:05:51.561Z,1.85
2022-08-09T01:08:28.499Z,4.97
2022-08-09T01:11:14.855Z,4.03
2022-08-09T01:13:58.779Z,6.38
2022-08-09T01:16:36.720Z,4.68
2022-08-09T01:19:39.991Z,4.93
2022-08-09T01:22:40.341Z,6.75
2022-08-09T01:25:41.596Z,4.75
2022-08-09T01:28:12.873Z,2.55
2022-08-09T01:30:51.757Z,4.80
2022-08-09T01:33:23.274Z,4.85
2022-08-09T01:35:59.238Z,3.78
2022-08-09T01:38:30.727Z,4.75
2022-08-09T01:41:05.601Z,2.92
2022-08-09T01:43:47.924Z,3.80
2022-08-09T01:46:25.170Z,2.03
2022-08-09T01:49:10.450Z,4.30
2022-08-09T01:51:44.228Z,2.35
2022-08-09T01:54:15.095Z,4.97
2022-08-09T01:56:47.191Z,5.07
2022-08-09T01:59:23.136Z,3.70
2022-08-09T02:01:59.122Z,4.80
2022-08-09T02:04:31.782Z,4.18
2022-08-09T02:07:17.957Z,3.60
2022-08-09T02:10:01.154Z,4.13
2022-08-09T02:12:33.469Z,4.32
2022-08-09T02:15:07.627Z,7.18
2022-08-09T02:18:00.873Z,5.03
2022-08-09T02:20:33.895Z,3.33
2022-08-09T02:23:07.850Z,5.10
2022-08-09T02:25:42.641Z,6.28
2022-08-09T02:28:20.620Z,4.25
2022-08-09T02:30:59.639Z,4.45
2022-08-09T02:33:38.286Z,8.50
2022-08-09T02:36:23.279Z,5.40
2022-08-09T02:38:56.727Z,3.17
2022-08-09T02:41:29.202Z,5.38
2022-08-09T02:44:00.698Z,6.50
2022-08-09T02:46:43.089Z,3.80
2022-08-09T02:49:15.807Z,2.60
2022-08-09T02:52:07.260Z,4.82
2022-08-09T02:54:54.083Z,6.68
2022-08-09T02:57:25.157Z,5.93
2022-08-09T03:00:21.098Z,3.45
2022-08-09T03:02:58.613Z,4.88
2022-08-09T03:05:30.007Z,8.15
2022-08-09T03:08:05.282Z,6.03
2022-08-09T03:10:35.543Z,5.22
2022-08-09T03:13:08.515Z,5.28
2022-08-09T03:16:04.335Z,6.35
2022-08-09T03:18:31.135Z,4.38
2022-08-09T03:21:02.196Z,5.30
2022-08-09T03:23:31.769Z,6.80
2022-08-09T03:26:05.184Z,8.25
2022-08-09T03:28:34.845Z,5.72
2022-08-09T03:31:09.889Z,6.68
2022-08-09T03:33:53.568Z,4.30
2022-08-09T03:36:27.310Z,5.93
2022-08-09T03:38:56.681Z,4.28
2022-08-09T03:41:30.240Z,6.10
2022-08-09T03:44:12.976Z,7.28
2022-08-09T03:46:43.770Z,4.55
2022-08-09T03:49:17.391Z,4.65
2022-08-09T03:51:58.825Z,6.68
2022-08-09T03:54:34.869Z,10.32
2022-08-09T03:57:18.712Z,4.30
2022-08-09T03:59:55.739Z,4.57
2022-08-09T04:02:28.494Z,4.22
2022-08-09T04:05:05.705Z,5.45
2022-08-09T04:07:52.958Z,5.80
2022-08-09T04:10:29.635Z,7.65
2022-08-09T04:13:00.709Z,6.18
2022-08-09T04:16:17.822Z,5.15
2022-08-09T04:18:19.475Z,5.15
2022-08-09T04:20:51.379Z,6.20
2022-08-09T04:23:23.154Z,5.47
2022-08-09T04:25:53.348Z,6.07
2022-08-09T04:28:30.728Z,7.03
2022-08-09T04:31:08.103Z,8.48
2022-08-09T04:33:53.176Z,6.47
2022-08-09T04:36:28.201Z,7.25
2022-08-09T04:38:58.006Z,11.20
2022-08-09T04:41:32.427Z,5.72
2022-08-09T04:44:07.368Z,5.45
2022-08-09T04:46:58.734Z,5.03
2022-08-09T04:49:52.196Z,3.78
2022-08-09T04:52:26.666Z,8.10
2022-08-09T04:54:55.783Z,5.95
2022-08-09T04:57:25.011Z,4.18
2022-08-09T04:59:55.332Z,5.97
2022-08-09T05:02:27.404Z,4.47
2022-08-09T05:04:56.288Z,6.57
2022-08-09T05:07:29.340Z,6.18
2022-08-09T05:10:01.845Z,7.13
2022-08-09T05:12:31.280Z,5.82
2022-08-09T05:15:03.426Z,7.90
2022-08-09T05:18:39.912Z,7.55
2022-08-09T05:20:30.000Z,5.63
2022-08-09T05:23:58.545Z,6.68
2022-08-09T05:25:51.143Z,5.03
2022-08-09T05:28:19.890Z,5.47
2022-08-09T05:30:48.615Z,9.43
2022-08-09T05:33:19.730Z,6.95
2022-08-09T05:35:54.633Z,3.88
2022-08-09T05:38:26.614Z,5.82
2022-08-09T05:40:56.137Z,7.40
2022-08-09T05:43:24.358Z,5.63
2022-08-09T05:45:57.954Z,8.90
2022-08-09T05:48:27.696Z,5.78
2022-08-09T05:51:42.289Z,7.25
2022-08-09T05:53:56.419Z,5.60
2022-08-09T05:56:26.774Z,5.80
2022-08-09T05:58:58.471Z,6.50
2022-08-09T06:01:34.175Z,5.68
2022-08-09T06:04:12.368Z,6.38
2022-08-09T06:06:45.169Z,6.32
2022-08-09T06:09:23.065Z,8.35
2022-08-09T06:12:08.139Z,5.35
2022-08-09T06:14:37.114Z,5.45
2022-08-09T06:17:09.940Z,6.82
2022-08-09T06:19:38.222Z,7.32
2022-08-09T06:22:06.755Z,7.43
2022-08-09T06:24:44.445Z,6.45
2022-08-09T06:27:12.831Z,8.60
2022-08-09T06:29:47.803Z,5.32
2022-08-09T06:32:59.657Z,7.43
2022-08-09T06:35:14.406Z,6.63
2022-08-09T06:37:52.871Z,5.32
2022-08-09T06:40:31.814Z,8.35
2022-08-09T06:43:02.197Z,7.85
2022-08-09T06:46:04.759Z,7.43
2022-08-09T06:48:26.180Z,4.30
2022-08-09T06:50:59.846Z,6.10
2022-08-09T06:53:33.282Z,6.00
2022-08-09T06:56:09.759Z,5.22
2022-08-09T07:00:49.165Z,4.57
2022-08-09T07:01:35.746Z,5.65
2022-08-09T07:04:19.674Z,3.42
2022-08-09T07:06:48.349Z,6.18
2022-08-09T07:09:57.007Z,9.68
2022-08-09T07:12:17.336Z,5.07
2022-08-09T07:14:51.270Z,3.35
2022-08-09T07:17:20.037Z,3.22
2022-08-09T07:19:50.964Z,4.90
2022-08-09T07:22:34.946Z,3.13
2022-08-09T07:25:05.335Z,4.18
2022-08-09T07:27:42.690Z,4.35
2022-08-09T07:30:24.648Z,7.55
2022-08-09T07:32:53.529Z,5.80
2022-08-09T07:35:23.472Z,4.97
2022-08-09T07:37:54.132Z,2.33
2022-08-09T07:40:37.358Z,5.93
2022-08-09T07:43:17.533Z,3.72
2022-08-09T07:45:45.696Z,3.53
2022-08-09T07:48:29.449Z,3.50
2022-08-09T07:51:09.758Z,3.13
2022-08-09T07:54:04.956Z,5.43
2022-08-09T07:56:36.899Z,6.18
2022-08-09T07:59:14.223Z,8.75
2022-08-09T08:01:53.063Z,3.78
2022-08-09T08:04:31.261Z,5.35
2022-08-09T08:07:14.896Z,5.53
2022-08-09T08:09:53.632Z,2.85
2022-08-09T08:12:29.635Z,4.30
2022-08-09T08:15:00.987Z,3.67
2022-08-09T08:17:52.057Z,3.72
2022-08-09T08:20:28.949Z,3.30
2022-08-09T08:23:03.727Z,2.80
2022-08-09T08:25:44.497Z,3.45
2022-08-09T08:28:15.007Z,4.35
2022-08-09T08:30:45.072Z,2.38
2022-08-09T08:33:23.921Z,3.88
2022-08-09T08:35:58.928Z,5.40
2022-08-09T08:38:29.026Z,3.47
2022-08-09T08:40:58.302Z,2.42
2022-08-09T08:43:27.654Z,2.28
2022-08-09T08:46:24.820Z,4.95
2022-08-09T08:48:53.498Z,2.20
2022-08-09T08:51:22.961Z,3.30
2022-08-09T08:54:03.051Z,6.13
2022-08-09T08:56:38.059Z,3.28
2022-08-09T08:59:19.023Z,1.77
2022-08-09T09:01:56.688Z,3.50
2022-08-09T09:04:29.841Z,1.77
2022-08-09T09:07:04.280Z,2.88
2022-08-09T09:09:58.273Z,1.13
2022-08-09T09:12:29.133Z,1.08
2022-08-09T09:15:00.062Z,3.75
2022-08-09T09:17:48.339Z,2.45
2022-08-09T09:20:18.242Z,3.47
2022-08-09T09:22:54.234Z,4.20
2022-08-09T09:26:04.330Z,2.13
2022-08-09T09:29:01.716Z,3.63
2022-08-09T09:32:01.485Z,4.07
2022-08-09T09:34:14.267Z,3.50
2022-08-09T09:36:53.246Z,0.95
2022-08-09T09:39:42.795Z,1.27
2022-08-09T09:42:25.531Z,2.17
2022-08-09T09:44:59.057Z,1.17
2022-08-09T09:47:28.559Z,2.92
2022-08-09T09:50:14.297Z,1.83
2022-08-09T09:52:53.374Z,1.77
2022-08-09T09:55:27.851Z,1.55
2022-08-09T09:58:17.186Z,3.10
2022-08-09T10:00:52.494Z,2.65
2022-08-09T10:03:57.423Z,1.00
2022-08-09T10:06:32.489Z,0.95
2022-08-09T10:09:11.978Z,2.47
2022-08-09T10:12:07.742Z,1.67
2022-08-09T10:14:44.011Z,2.70
2022-08-09T10:17:54.984Z,2.13
2022-08-09T10:20:10.889Z,3.80
2022-08-09T10:22:45.229Z,2.42
2022-08-09T10:25:14.532Z,2.25
2022-08-09T10:27:56.195Z,0.70
2022-08-09T10:33:29.534Z,3.22
2022-08-09T10:36:04.903Z,1.95
2022-08-09T10:38:56.873Z,1.95
2022-08-09T10:41:24.592Z,1.73
2022-08-09T10:44:00.085Z,1.27
2022-08-09T10:47:01.172Z,1.63
2022-08-09T10:49:49.767Z,2.15
2022-08-09T10:52:42.830Z,3.88
2022-08-09T10:55:25.127Z,1.58
2022-08-09T10:57:55.666Z,1.83
2022-08-09T11:01:10.909Z,1.00
2022-08-09T11:03:51.513Z,1.40
2022-08-09T11:06:25.293Z,1.23
2022-08-09T11:08:54.275Z,1.35
2022-08-09T11:12:05.917Z,1.38
2022-08-09T11:14:38.152Z,2.20
2022-08-09T11:17:41.723Z,2.85
2022-08-09T11:20:20.157Z,1.42
2022-08-09T11:23:02.856Z,1.27
2022-08-09T11:25:49.265Z,1.58
2022-08-09T11:28:55.878Z,0.88
2022-08-09T11:31:53.138Z,1.35
2022-08-09T11:34:36.220Z,1.13
2022-08-09T11:37:07.503Z,3.10
2022-08-09T11:40:04.694Z,1.70
2022-08-09T11:42:50.061Z,2.95
2022-08-09T11:45:26.286Z,2.08
2022-08-09T11:48:25.965Z,1.00
2022-08-09T11:52:59.262Z,1.42
2022-08-09T11:54:28.484Z,0.98
2022-08-09T11:57:47.552Z,1.30
2022-08-09T12:00:29.656Z,0.73
2022-08-09T12:03:31.794Z,2.63
2022-08-09T12:05:50.440Z,3.95
2022-08-09T12:08:21.926Z,2.58
2022-08-09T12:10:54.043Z,2.65
2022-08-09T12:14:08.904Z,1.67
2022-08-09T12:16:37.885Z,2.70
2022-08-09T12:19:09.255Z,0.40
2022-08-09T12:21:50.235Z,1.27
2022-08-09T12:24:23.953Z,2.15
2022-08-09T12:29:15.031Z,3.45
2022-08-09T12:30:01.687Z,0.30
2022-08-09T12:32:44.196Z,1.20
2022-08-09T12:35:19.304Z,2.35
2022-08-09T12:37:51.489Z,2.75
2022-08-09T12:40:23.285Z,1.80
2022-08-09T12:42:55.632Z,0.43
2022-08-09T12:45:34.956Z,2.58
2022-08-09T12:48:08.000Z,1.58
2022-08-09T12:50:49.801Z,0.43
2022-08-09T12:53:35.180Z,1.23
2022-08-09T12:56:43.263Z,1.52
2022-08-09T12:59:10.402Z,0.60
2022-08-09T13:01:47.014Z,1.13
2022-08-09T13:04:35.975Z,2.33
2022-08-09T13:07:14.356Z,1.00
2022-08-09T13:09:43.483Z,2.38
2022-08-09T13:12:23.372Z,2.40
2022-08-09T13:14:55.093Z,0.80
2022-08-09T13:18:02.983Z,2.08
2022-08-09T13:20:18.966Z,1.95
2022-08-09T13:23:01.647Z,1.98
2022-08-09T13:25:42.034Z,2.92
2022-08-09T13:28:18.824Z,3.75
2022-08-09T13:32:14.482Z,1.42
2022-08-09T13:33:57.774Z,4.28
2022-08-09T13:36:42.044Z,1.90
2022-08-09T13:41:19.154Z,1.10
2022-08-09T13:42:03.759Z,0.85
2022-08-09T13:44:33.188Z,2.22
2022-08-09T13:47:19.437Z,1.15
2022-08-09T13:49:57.265Z,1.23
2022-08-09T13:52:26.092Z,1.67
2022-08-09T13:55:00.785Z,2.03
2022-08-09T13:57:39.616Z,0.98
2022-08-09T14:00:12.831Z,2.20
2022-08-09T14:03:02.856Z,1.15
2022-08-09T14:06:00.478Z,0.93
2022-08-09T14:08:20.732Z,1.20
2022-08-09T14:10:52.997Z,1.15
2022-08-09T14:14:16.390Z,1.02
2022-08-09T14:16:14.045Z,2.03
2022-08-09T14:18:45.861Z,1.80
2022-08-09T14:21:18.561Z,1.25
2022-08-09T14:23:54.629Z,0.95
2022-08-09T14:26:32.918Z,2.35
2022-08-09T14:29:07.494Z,3.08
2022-08-09T14:31:53.851Z,1.85
2022-08-09T14:34:32.324Z,3.42
2022-08-09T14:37:02.843Z,3.80
2022-08-09T14:39:46.437Z,1.85
2022-08-09T14:42:31.405Z,0.70
2022-08-09T14:46:39.098Z,0.95
2022-08-09T14:47:58.041Z,1.40
2022-08-09T14:50:30.888Z,0.63
2022-08-09T14:52:59.904Z,1.75
2022-08-09T14:55:32.337Z,0.75
2022-08-09T14:58:03.434Z,2.65
2022-08-09T15:00:35.169Z,1.20
2022-08-09T15:03:05.261Z,1.70
2022-08-09T15:05:36.678Z,3.53
2022-08-09T15:08:05.766Z,3.60
2022-08-09T15:10:35.685Z,0.60
2022-08-09T15:13:04.964Z,1.75
2022-08-09T15:15:38.836Z,0.98
2022-08-09T15:18:12.298Z,1.38
2022-08-09T15:21:55.040Z,1.15
2022-08-09T15:24:03.137Z,0.85
2022-08-09T15:26:31.332Z,0.77
2022-08-09T15:29:04.287Z,1.20
2022-08-09T15:31:41.480Z,0.60
2022-08-09T15:34:33.247Z,2.15
2022-08-09T15:37:03.895Z,4.28
2022-08-09T15:39:43.914Z,1.23
2022-08-09T15:42:21.766Z,1.85
2022-08-09T15:44:50.097Z,1.75
2022-08-09T15:47:22.500Z,1.85
2022-08-09T15:50:04.234Z,1.50
2022-08-09T15:52:35.920Z,0.52
2022-08-09T15:55:05.254Z,1.20
2022-08-09T15:57:35.951Z,1.30
2022-08-09T16:00:21.875Z,0.95
2022-08-09T16:02:54.630Z,0.50
2022-08-09T16:05:24.630Z,1.73
2022-08-09T16:07:53.923Z,2.50
2022-08-09T16:10:54.790Z,2.58
2022-08-09T16:13:18.454Z,2.88
2022-08-09T16:16:04.659Z,2.45
2022-08-09T16:18:37.194Z,1.55
2022-08-09T16:21:17.826Z,0.70
2022-08-09T16:23:58.695Z,2.83
2022-08-09T16:26:33.848Z,0.90
2022-08-09T16:29:10.749Z,2.92
2022-08-09T16:32:17.806Z,4.30
2022-08-09T16:34:29.116Z,3.75
2022-08-09T16:36:57.263Z,1.35
2022-08-09T16:39:27.847Z,0.55
2022-08-09T16:42:07.966Z,4.65
2022-08-09T16:44:35.929Z,2.20
2022-08-09T16:48:41.607Z,0.93
2022-08-09T16:50:31.957Z,1.52
2022-08-09T16:52:39.962Z,2.20
2022-08-09T16:55:15.717Z,0.57
2022-08-09T16:58:10.191Z,1.33
2022-08-09T17:00:33.307Z,3.25
2022-08-09T17:03:02.001Z,2.10
2022-08-09T17:06:08.776Z,4.05
2022-08-09T17:08:46.847Z,1.50
2022-08-09T17:11:08.133Z,1.83
2022-08-09T17:13:39.037Z,0.95
2022-08-09T17:16:13.123Z,1.02
2022-08-09T17:18:41.122Z,2.47
2022-08-09T17:21:13.306Z,1.08
2022-08-09T17:24:27.170Z,1.85
2022-08-09T17:26:38.151Z,3.40
2022-08-09T17:29:11.798Z,1.70
2022-08-09T17:31:49.311Z,1.98
2022-08-09T17:35:00.802Z,2.35
2022-08-09T17:37:05.708Z,2.65
2022-08-09T17:39:52.639Z,1.50
2022-08-09T17:42:41.396Z,2.00
2022-08-09T17:45:23.561Z,1.75
2022-08-09T17:48:02.685Z,2.35
2022-08-09T17:50:37.109Z,3.25
2022-08-09T17:53:19.815Z,3.88
2022-08-09T17:55:55.764Z,1.80
2022-08-09T17:58:28.413Z,6.07
2022-08-09T18:00:58.394Z,2.22
2022-08-09T18:03:30.483Z,1.83
2022-08-09T18:06:01.828Z,2.63
2022-08-09T18:08:30.213Z,1.75
2022-08-09T18:11:01.755Z,3.25
2022-08-09T18:13:43.520Z,1.45
2022-08-09T18:16:28.908Z,2.10
2022-08-09T18:19:03.907Z,5.65
2022-08-09T18:21:41.484Z,3.97
2022-08-09T18:24:14.574Z,1.48
2022-08-09T18:26:46.955Z,2.30
2022-08-09T18:30:41.749Z,4.43
2022-08-09T18:32:07.681Z,1.95
2022-08-09T18:34:36.466Z,3.65
2022-08-09T18:37:05.185Z,6.15
2022-08-09T18:39:39.592Z,2.40
2022-08-09T18:42:10.060Z,4.72
2022-08-09T18:44:41.435Z,2.88
2022-08-09T18:47:15.895Z,6.00
2022-08-09T18:49:46.998Z,3.45
2022-08-09T18:52:18.770Z,3.40
2022-08-09T18:54:56.811Z,2.90
2022-08-09T18:57:42.673Z,1.45
2022-08-09T19:00:16.814Z,3.17
2022-08-09T19:02:51.176Z,2.55
2022-08-09T19:05:48.806Z,1.95
2022-08-09T19:08:14.126Z,2.08
2022-08-09T19:10:47.870Z,3.15
2022-08-09T19:13:23.216Z,1.70
2022-08-09T19:16:05.939Z,3.63
2022-08-09T19:18:38.499Z,2.72
2022-08-09T19:21:11.467Z,1.52
2022-08-09T19:24:35.865Z,5.20
2022-08-09T19:26:31.776Z,2.58
2022-08-09T19:29:02.258Z,2.78
2022-08-09T19:31:44.366Z,3.83
2022-08-09T19:34:21.387Z,2.50
2022-08-09T19:36:52.545Z,2.33
2022-08-09T19:39:43.784Z,1.60
2022-08-09T19:42:15.253Z,1.55
2022-08-09T19:44:49.522Z,2.00
2022-08-09T19:47:23.768Z,2.00
2022-08-09T19:50:07.318Z,3.60
2022-08-09T19:52:51.524Z,3.25
2022-08-09T19:55:25.829Z,4.18
2022-08-09T19:58:16.105Z,2.10
2022-08-09T20:00:46.679Z,1.60
2022-08-09T20:04:10.664Z,1.60
2022-08-09T20:06:10.511Z,1.52
2022-08-09T20:08:51.630Z,1.88
2022-08-09T20:11:21.552Z,3.35
2022-08-09T20:13:54.981Z,2.20
2022-08-09T20:16:34.222Z,2.72
2022-08-09T20:19:49.582Z,1.63
2022-08-09T20:22:00.190Z,5.38
2022-08-09T20:24:29.609Z,1.98
2022-08-09T20:27:03.080Z,3.25
2022-08-09T20:29:37.943Z,4.07
2022-08-09T20:32:28.611Z,1.83
2022-08-09T20:34:57.062Z,1.80
2022-08-09T20:37:25.568Z,0.98
2022-08-09T20:40:19.140Z,2.55
2022-08-09T20:42:59.852Z,2.35
2022-08-09T20:45:59.385Z,2.67
2022-08-09T20:48:20.915Z,1.13
2022-08-09T20:50:55.749Z,1.23
2022-08-09T20:53:37.742Z,1.63
2022-08-09T20:56:17.331Z,1.45
2022-08-09T20:58:54.693Z,1.08
2022-08-09T21:01:34.321Z,2.85
2022-08-09T21:05:56.530Z,2.88
2022-08-09T21:07:12.748Z,1.75
2022-08-09T21:09:45.759Z,2.00
2022-08-09T21:12:32.146Z,2.15
2022-08-09T21:15:13.584Z,1.33
2022-08-09T21:18:21.741Z,2.50
2022-08-09T21:20:31.940Z,2.13
2022-08-09T21:23:01.611Z,6.97
2022-08-09T21:25:59.939Z,3.13
2022-08-09T21:28:33.612Z,2.88
2022-08-09T21:31:18.113Z,2.05
2022-08-09T21:33:51.702Z,1.65
2022-08-09T21:36:23.126Z,2.97
2022-08-09T21:38:57.459Z,1.02
2022-08-09T21:41:59.814Z,1.40
2022-08-09T21:44:33.461Z,2.95
2022-08-09T21:47:05.226Z,1.73
2022-08-09T21:49:39.675Z,5.03
2022-08-09T21:52:15.072Z,3.67
2022-08-09T21:54:50.972Z,1.55
2022-08-09T21:57:39.616Z,1.75
2022-08-09T22:00:25.793Z,1.98
2022-08-09T22:02:58.098Z,3.28
2022-08-09T22:05:36.951Z,3.08
2022-08-09T22:08:13.052Z,2.58
2022-08-09T22:11:49.497Z,2.03
2022-08-09T22:13:36.595Z,0.85
2022-08-09T22:16:09.054Z,1.23
2022-08-09T22:18:38.103Z,4.95
2022-08-09T22:21:10.006Z,2.10
2022-08-09T22:23:59.932Z,2.13
2022-08-09T22:26:34.718Z,1.50
2022-08-09T22:29:06.810Z,2.13
2022-08-09T22:31:35.904Z,1.15
2022-08-09T22:34:09.819Z,0.93
2022-08-09T22:36:46.320Z,1.77
2022-08-09T22:39:46.814Z,1.15
2022-08-09T22:42:16.291Z,2.40
2022-08-09T22:44:59.869Z,4.32
2022-08-09T22:48:10.774Z,1.63
2022-08-09T22:50:21.874Z,0.85
2022-08-09T22:52:54.779Z,1.23
2022-08-09T22:55:39.274Z,1.77
2022-08-09T22:58:20.274Z,2.83
2022-08-09T23:00:59.534Z,1.58
2022-08-09T23:03:31.198Z,1.23
2022-08-09T23:06:15.677Z,2.10
2022-08-09T23:08:59.870Z,2.10
2022-08-09T23:11:28.012Z,2.70
2022-08-09T23:14:04.137Z,2.60
2022-08-09T23:16:38.602Z,1.80
2022-08-09T23:19:29.319Z,1.98
2022-08-09T23:22:19.480Z,2.25
2022-08-09T23:24:48.608Z,4.00
2022-08-09T23:27:17.812Z,1.70
2022-08-09T23:29:47.326Z,4.25
2022-08-09T23:32:15.336Z,3.17
2022-08-09T23:34:43.649Z,1.25
2022-08-09T23:37:11.785Z,1.27
2022-08-09T23:39:42.025Z,0.80
2022-08-09T23:42:10.158Z,1.20
2022-08-09T23:44:39.370Z,1.50
2022-08-09T23:47:08.799Z,1.38
2022-08-09T23:49:36.881Z,1.75
2022-08-09T23:52:05.613Z,6.97
2022-08-09T23:54:33.886Z,1.98
2022-08-09T23:57:04.509Z,1.58
2022-08-09T23:59:47.241Z,2.30
